sensor_id;sensor_type;location;lat;lon;timestamp;P1;durP1;ratioP1;P2;durP2;ratioP2
61739;SDS011;47645;45.288;12.038;2022-09-03T00:04:03;2.2;;;1.7;;
61739;SDS011;47645;45.288;12.038;2022-09-03T00:14:04;3.7;;;2.2;;
61739;SDS011;47645;45.288;12.038;2022-09-03T00:24:05;4.5;;;2.5;;
61739;SDS011;47645;45.288;12.038;2022-09-03T00:34:08;3.6;;;2.0;;
61739;SDS011;47645;45.288;12.038;2022-09-03T00:44:12;3.7;;;2.8;;
61739;SDS011;47645;45.288;12.038;2022-09-03T00:54:09;3.5;;;2.2;;
61739;SDS011;47645;45.288;12.038;2022-09-03T01:04:13;2.9;;;1.9;;
61739;SDS011;47645;45.288;12.038;2022-09-03T01:14:11;6.4;;;2.9;;
61739;SDS011;47645;45.288;12.038;2022-09-03T01:25:19;3.3;;;2.4;;
61739;SDS011;47645;45.288;12.038;2022-09-03T01:34:16;5.2;;;4.4;;
61739;SDS011;47645;45.288;12.038;2022-09-03T01:44:19;8.2;;;5.4;;
61739;SDS011;47645;45.288;12.038;2022-09-03T01:54:18;9.4;;;6.7;;
61739;SDS011;47645;45.288;12.038;2022-09-03T02:04:17;7.6;;;6.3;;
61739;SDS011;47645;45.288;12.038;2022-09-03T02:14:17;8.7;;;5.8;;
61739;SDS011;47645;45.288;12.038;2022-09-03T02:24:18;7.1;;;5.7;;
61739;SDS011;47645;45.288;12.038;2022-09-03T02:34:19;8.4;;;5.2;;
61739;SDS011;47645;45.288;12.038;2022-09-03T02:44:25;8.0;;;5.0;;
61739;SDS011;47645;45.288;12.038;2022-09-03T02:54:21;4.9;;;3.7;;
61739;SDS011;47645;45.288;12.038;2022-09-03T03:04:22;6.5;;;4.1;;
61739;SDS011;47645;45.288;12.038;2022-09-03T03:14:23;6.6;;;3.7;;
61739;SDS011;47645;45.288;12.038;2022-09-03T03:24:24;4.5;;;3.1;;
61739;SDS011;47645;45.288;12.038;2022-09-03T03:34:25;5.1;;;3.1;;
61739;SDS011;47645;45.288;12.038;2022-09-03T03:44:26;4.8;;;2.6;;
61739;SDS011;47645;45.288;12.038;2022-09-03T03:54:27;4.8;;;2.4;;
61739;SDS011;47645;45.288;12.038;2022-09-03T04:04:28;4.9;;;2.8;;
61739;SDS011;47645;45.288;12.038;2022-09-03T04:14:29;4.3;;;2.5;;
61739;SDS011;47645;45.288;12.038;2022-09-03T04:24:31;3.4;;;2.5;;
61739;SDS011;47645;45.288;12.038;2022-09-03T04:34:31;6.4;;;2.8;;
61739;SDS011;47645;45.288;12.038;2022-09-03T04:44:36;3.5;;;2.5;;
61739;SDS011;47645;45.288;12.038;2022-09-03T04:54:33;3.5;;;2.5;;
61739;SDS011;47645;45.288;12.038;2022-09-03T05:09:35;6.1;;;3.3;;
61739;SDS011;47645;45.288;12.038;2022-09-03T05:14:35;7.1;;;3.0;;
61739;SDS011;47645;45.288;12.038;2022-09-03T05:24:36;6.2;;;3.1;;
61739;SDS011;47645;45.288;12.038;2022-09-03T05:34:38;4.8;;;2.5;;
61739;SDS011;47645;45.288;12.038;2022-09-03T05:44:39;4.5;;;2.7;;
61739;SDS011;47645;45.288;12.038;2022-09-03T05:54:39;5.7;;;2.8;;
61739;SDS011;47645;45.288;12.038;2022-09-03T06:04:41;4.6;;;2.6;;
61739;SDS011;47645;45.288;12.038;2022-09-03T06:14:41;5.8;;;2.7;;
61739;SDS011;47645;45.288;12.038;2022-09-03T06:24:43;8.0;;;3.6;;
61739;SDS011;47645;45.288;12.038;2022-09-03T06:34:44;9.2;;;4.2;;
61739;SDS011;47645;45.288;12.038;2022-09-03T06:44:45;9.6;;;4.2;;
61739;SDS011;47645;45.288;12.038;2022-09-03T06:54:45;11.3;;;3.7;;
61739;SDS011;47645;45.288;12.038;2022-09-03T07:04:48;6.3;;;3.7;;
61739;SDS011;47645;45.288;12.038;2022-09-03T07:14:48;8.2;;;4.2;;
61739;SDS011;47645;45.288;12.038;2022-09-03T07:24:51;6.1;;;3.8;;
61739;SDS011;47645;45.288;12.038;2022-09-03T07:34:52;5.8;;;3.9;;
61739;SDS011;47645;45.288;12.038;2022-09-03T07:44:51;6.8;;;3.4;;
61739;SDS011;47645;45.288;12.038;2022-09-03T07:54:52;6.0;;;2.9;;
61739;SDS011;47645;45.288;12.038;2022-09-03T08:04:54;4.9;;;2.0;;
61739;SDS011;47645;45.288;12.038;2022-09-03T08:14:57;3.6;;;1.8;;
61739;SDS011;47645;45.288;12.038;2022-09-03T08:24:57;5.4;;;2.2;;
61739;SDS011;47645;45.288;12.038;2022-09-03T08:34:58;5.3;;;2.1;;
61739;SDS011;47645;45.288;12.038;2022-09-03T08:44:58;3.5;;;1.8;;
61739;SDS011;47645;45.288;12.038;2022-09-03T08:55:03;4.0;;;1.8;;
61739;SDS011;47645;45.288;12.038;2022-09-03T09:05:02;6.7;;;1.7;;
61739;SDS011;47645;45.288;12.038;2022-09-03T09:15:05;2.3;;;1.4;;
61739;SDS011;47645;45.288;12.038;2022-09-03T09:25:06;3.9;;;1.5;;
61739;SDS011;47645;45.288;12.038;2022-09-03T09:30:04;4.2;;;1.5;;
61739;SDS011;47645;45.288;12.038;2022-09-03T09:40:06;3.4;;;1.4;;
61739;SDS011;47645;45.288;12.038;2022-09-03T09:50:15;4.2;;;1.7;;
61739;SDS011;47645;45.288;12.038;2022-09-03T10:00:10;2.9;;;1.1;;
61739;SDS011;47645;45.288;12.038;2022-09-03T10:10:13;3.2;;;1.4;;
61739;SDS011;47645;45.288;12.038;2022-09-03T10:20:44;4.0;;;1.4;;
61739;SDS011;47645;45.288;12.038;2022-09-03T10:30:13;3.2;;;1.3;;
61739;SDS011;47645;45.288;12.038;2022-09-03T10:40:16;3.2;;;1.3;;
61739;SDS011;47645;45.288;12.038;2022-09-03T10:50:18;5.6;;;1.4;;
61739;SDS011;47645;45.288;12.038;2022-09-03T11:00:17;2.0;;;1.1;;
61739;SDS011;47645;45.288;12.038;2022-09-03T11:10:19;2.4;;;1.3;;
61739;SDS011;47645;45.288;12.038;2022-09-03T11:20:20;2.3;;;1.3;;
61739;SDS011;47645;45.288;12.038;2022-09-03T11:30:22;3.1;;;1.1;;
61739;SDS011;47645;45.288;12.038;2022-09-03T11:40:28;4.0;;;1.4;;
61739;SDS011;47645;45.288;12.038;2022-09-03T11:50:25;4.0;;;1.8;;
61739;SDS011;47645;45.288;12.038;2022-09-03T12:00:25;2.5;;;1.2;;
61739;SDS011;47645;45.288;12.038;2022-09-03T12:10:30;2.6;;;1.2;;
61739;SDS011;47645;45.288;12.038;2022-09-03T12:20:28;3.7;;;1.1;;
61739;SDS011;47645;45.288;12.038;2022-09-03T12:30:30;2.4;;;1.1;;
61739;SDS011;47645;45.288;12.038;2022-09-03T12:40:32;3.8;;;1.1;;
61739;SDS011;47645;45.288;12.038;2022-09-03T12:50:34;3.4;;;1.0;;
61739;SDS011;47645;45.288;12.038;2022-09-03T13:00:35;1.8;;;1.1;;
61739;SDS011;47645;45.288;12.038;2022-09-03T13:10:37;2.2;;;1.0;;
61739;SDS011;47645;45.288;12.038;2022-09-03T13:20:40;3.1;;;1.2;;
61739;SDS011;47645;45.288;12.038;2022-09-03T13:30:42;4.4;;;1.1;;
61739;SDS011;47645;45.288;12.038;2022-09-03T13:40:42;6.9;;;1.5;;
61739;SDS011;47645;45.288;12.038;2022-09-03T13:50:44;3.0;;;1.0;;
61739;SDS011;47645;45.288;12.038;2022-09-03T14:00:45;2.9;;;1.2;;
61739;SDS011;47645;45.288;12.038;2022-09-03T14:10:55;4.4;;;1.1;;
61739;SDS011;47645;45.288;12.038;2022-09-03T14:20:48;2.5;;;1.0;;
61739;SDS011;47645;45.288;12.038;2022-09-03T14:30:50;2.9;;;1.0;;
61739;SDS011;47645;45.288;12.038;2022-09-03T14:40:51;1.7;;;1.0;;
61739;SDS011;47645;45.288;12.038;2022-09-03T14:50:56;4.6;;;1.1;;
61739;SDS011;47645;45.288;12.038;2022-09-03T15:00:55;1.7;;;0.9;;
61739;SDS011;47645;45.288;12.038;2022-09-03T15:10:56;2.2;;;1.0;;
61739;SDS011;47645;45.288;12.038;2022-09-03T15:20:58;2.7;;;1.1;;
61739;SDS011;47645;45.288;12.038;2022-09-03T15:30:59;2.4;;;0.9;;
61739;SDS011;47645;45.288;12.038;2022-09-03T15:41:01;2.5;;;1.1;;
61739;SDS011;47645;45.288;12.038;2022-09-03T15:51:04;1.7;;;0.8;;
61739;SDS011;47645;45.288;12.038;2022-09-03T16:01:05;1.5;;;1.0;;
61739;SDS011;47645;45.288;12.038;2022-09-03T16:11:06;2.0;;;0.8;;
61739;SDS011;47645;45.288;12.038;2022-09-03T16:21:07;1.4;;;0.8;;
61739;SDS011;47645;45.288;12.038;2022-09-03T16:31:10;2.9;;;0.9;;
61739;SDS011;47645;45.288;12.038;2022-09-03T16:41:12;1.9;;;1.0;;
61739;SDS011;47645;45.288;12.038;2022-09-03T16:51:12;3.1;;;1.0;;
61739;SDS011;47645;45.288;12.038;2022-09-03T17:01:15;2.8;;;1.1;;
61739;SDS011;47645;45.288;12.038;2022-09-03T17:11:17;2.8;;;1.0;;
61739;SDS011;47645;45.288;12.038;2022-09-03T17:21:26;2.3;;;1.1;;
61739;SDS011;47645;45.288;12.038;2022-09-03T17:31:19;2.1;;;0.9;;
61739;SDS011;47645;45.288;12.038;2022-09-03T17:41:20;2.6;;;1.0;;
61739;SDS011;47645;45.288;12.038;2022-09-03T17:51:26;2.3;;;1.1;;
61739;SDS011;47645;45.288;12.038;2022-09-03T18:01:22;2.1;;;1.2;;
61739;SDS011;47645;45.288;12.038;2022-09-03T18:11:26;3.5;;;1.4;;
61739;SDS011;47645;45.288;12.038;2022-09-03T20:11:39;2.9;;;1.3;;
61739;SDS011;47645;45.288;12.038;2022-09-03T20:21:41;5.0;;;1.8;;
61739;SDS011;47645;45.288;12.038;2022-09-03T20:31:43;2.2;;;1.3;;
61739;SDS011;47645;45.288;12.038;2022-09-03T20:41:44;3.5;;;1.6;;
61739;SDS011;47645;45.288;12.038;2022-09-03T20:51:45;2.8;;;1.1;;
61739;SDS011;47645;45.288;12.038;2022-09-03T21:01:48;2.6;;;1.6;;
61739;SDS011;47645;45.288;12.038;2022-09-03T21:11:47;3.0;;;1.8;;
61739;SDS011;47645;45.288;12.038;2022-09-03T21:21:50;3.2;;;1.6;;
61739;SDS011;47645;45.288;12.038;2022-09-03T21:31:50;3.4;;;1.9;;
61739;SDS011;47645;45.288;12.038;2022-09-03T21:41:53;4.2;;;2.4;;
61739;SDS011;47645;45.288;12.038;2022-09-03T21:51:54;6.2;;;2.3;;
61739;SDS011;47645;45.288;12.038;2022-09-03T22:01:55;4.0;;;2.0;;
61739;SDS011;47645;45.288;12.038;2022-09-03T22:11:55;2.5;;;1.5;;
61739;SDS011;47645;45.288;12.038;2022-09-03T22:21:58;2.6;;;1.8;;
61739;SDS011;47645;45.288;12.038;2022-09-03T22:31:57;2.6;;;1.8;;
61739;SDS011;47645;45.288;12.038;2022-09-03T22:42:05;2.8;;;1.5;;
61739;SDS011;47645;45.288;12.038;2022-09-03T22:52:03;4.9;;;2.2;;
61739;SDS011;47645;45.288;12.038;2022-09-03T23:02:02;5.1;;;3.3;;
61739;SDS011;47645;45.288;12.038;2022-09-03T23:12:01;5.6;;;3.4;;
61739;SDS011;47645;45.288;12.038;2022-09-03T23:22:02;4.8;;;3.0;;
61739;SDS011;47645;45.288;12.038;2022-09-03T23:32:04;5.7;;;3.2;;
61739;SDS011;47645;45.288;12.038;2022-09-03T23:42:08;3.0;;;2.2;;
61739;SDS011;47645;45.288;12.038;2022-09-03T23:52:11;4.9;;;2.8;;
